createdAt,value
2018-09-05T00:02:50.994Z,10.50
2018-09-05T00:05:54.168Z,10.50
2018-09-05T00:08:57.617Z,10.07
2018-09-05T00:12:00.914Z,11.07
2018-09-05T00:15:04.187Z,10.70
2018-09-05T00:18:07.385Z,10.47
2018-09-05T00:21:10.675Z,10.67
2018-09-05T00:24:13.999Z,10.60
2018-09-05T00:27:18.014Z,10.73
2018-09-05T00:30:21.274Z,11.47
2018-09-05T00:33:24.605Z,11.27
2018-09-05T00:36:27.884Z,11.20
2018-09-05T00:39:31.185Z,11.70
2018-09-05T00:42:34.495Z,10.87
2018-09-05T00:45:37.759Z,11.17
2018-09-05T00:48:41.058Z,11.33
2018-09-05T00:51:44.368Z,11.47
2018-09-05T00:54:49.820Z,11.17
2018-09-05T00:57:53.143Z,11.60
2018-09-05T01:00:56.414Z,12.10
2018-09-05T01:03:59.715Z,11.00
2018-09-05T01:07:18.888Z,11.53
2018-09-05T01:10:22.199Z,12.00
2018-09-05T01:13:25.483Z,11.40
2018-09-05T01:16:28.770Z,11.40
2018-09-05T01:19:32.080Z,11.70
2018-09-05T01:22:35.375Z,12.50
2018-09-05T01:25:38.549Z,11.10
2018-09-05T01:28:41.858Z,11.60
2018-09-05T01:31:45.163Z,11.73
2018-09-05T01:34:49.770Z,11.53
2018-09-05T01:37:53.087Z,11.90
2018-09-05T01:40:56.386Z,10.87
2018-09-05T01:43:59.564Z,11.83
2018-09-05T01:47:02.880Z,11.57
2018-09-05T01:50:06.179Z,11.53
2018-09-05T01:53:09.457Z,11.43
2018-09-05T01:56:12.793Z,12.07
2018-09-05T01:59:16.071Z,12.30
2018-09-05T02:02:20.486Z,11.87
2018-09-05T02:05:23.772Z,12.00
2018-09-05T02:08:27.247Z,12.93
2018-09-05T02:11:30.378Z,12.47
2018-09-05T02:14:33.705Z,12.47
2018-09-05T02:17:36.960Z,12.63
2018-09-05T02:20:40.160Z,12.30
2018-09-05T02:23:43.471Z,12.20
2018-09-05T02:26:46.765Z,12.10
2018-09-05T02:29:51.012Z,12.27
2018-09-05T02:32:54.283Z,11.50
2018-09-05T02:35:57.575Z,12.30
2018-09-05T02:39:01.801Z,12.07
2018-09-05T02:42:05.104Z,13.00
2018-09-05T02:45:08.447Z,12.97
2018-09-05T02:48:12.707Z,12.60
2018-09-05T02:51:15.904Z,13.37
2018-09-05T02:54:20.106Z,13.40
2018-09-05T02:57:23.399Z,13.17
2018-09-05T03:00:26.641Z,12.13
2018-09-05T03:03:30.046Z,12.53
2018-09-05T03:06:33.194Z,12.10
2018-09-05T03:09:36.409Z,13.40
2018-09-05T03:12:40.731Z,13.13
2018-09-05T03:15:44.052Z,11.80
2018-09-05T03:18:47.327Z,12.63
2018-09-05T03:21:50.753Z,13.37
2018-09-05T03:24:53.999Z,13.33
2018-09-05T03:27:57.219Z,12.80
2018-09-05T03:31:14.568Z,12.70
2018-09-05T03:34:18.275Z,13.53
2018-09-05T03:37:21.429Z,12.73
2018-09-05T03:40:26.824Z,13.10
2018-09-05T03:43:30.171Z,13.40
2018-09-05T03:46:33.403Z,13.20
2018-09-05T03:49:36.857Z,13.63
2018-09-05T03:52:39.942Z,12.97
2018-09-05T03:55:43.207Z,13.63
2018-09-05T03:58:46.484Z,13.57
2018-09-05T04:01:50.468Z,13.73
2018-09-05T04:04:53.666Z,13.50
2018-09-05T04:07:57.054Z,14.00
2018-09-05T04:11:00.385Z,13.13
2018-09-05T04:14:03.803Z,14.10
2018-09-05T04:17:07.219Z,13.37
2018-09-05T04:20:10.509Z,13.33
2018-09-05T04:23:13.751Z,12.70
2018-09-05T04:26:18.234Z,13.20
2018-09-05T04:29:22.312Z,13.60
2018-09-05T04:32:26.654Z,13.87
2018-09-05T04:35:29.959Z,12.67
2018-09-05T04:38:33.453Z,12.53
2018-09-05T04:41:36.742Z,13.90
2018-09-05T04:44:40.359Z,13.03
2018-09-05T04:47:43.632Z,13.23
2018-09-05T04:50:46.839Z,13.97
2018-09-05T04:53:51.035Z,12.80
2018-09-05T04:56:54.828Z,12.57
2018-09-05T04:59:58.188Z,12.40
2018-09-05T05:03:01.451Z,13.13
2018-09-05T05:06:04.695Z,13.80
2018-09-05T05:09:16.143Z,13.80
2018-09-05T05:12:20.368Z,12.53
2018-09-05T05:15:23.638Z,13.67
2018-09-05T05:18:27.030Z,13.30
2018-09-05T05:21:31.245Z,14.00
2018-09-05T05:24:34.598Z,14.53
2018-09-05T05:27:37.851Z,14.30
2018-09-05T05:30:41.156Z,13.37
2018-09-05T05:33:44.393Z,14.33
2018-09-05T05:36:47.507Z,13.87
2018-09-05T05:39:51.698Z,13.90
2018-09-05T05:42:54.979Z,13.33
2018-09-05T05:45:58.243Z,13.63
2018-09-05T05:49:01.699Z,13.70
2018-09-05T05:52:04.992Z,14.03
2018-09-05T05:55:08.266Z,13.90
2018-09-05T05:58:11.592Z,14.27
2018-09-05T06:01:14.877Z,14.10
2018-09-05T06:04:18.155Z,13.83
2018-09-05T06:07:22.027Z,13.83
2018-09-05T06:10:26.217Z,14.47
2018-09-05T06:13:29.554Z,13.53
2018-09-05T06:16:32.706Z,13.90
2018-09-05T06:19:36.006Z,14.70
2018-09-05T06:22:39.257Z,13.47
2018-09-05T06:25:42.601Z,14.83
2018-09-05T06:28:45.848Z,14.10
2018-09-05T06:31:50.219Z,13.90
2018-09-05T06:34:53.487Z,15.13
2018-09-05T06:37:56.792Z,14.77
2018-09-05T06:40:59.959Z,13.50
2018-09-05T06:44:03.407Z,14.70
2018-09-05T06:47:06.676Z,14.00
2018-09-05T06:50:09.979Z,15.40
2018-09-05T06:53:13.151Z,14.37
2018-09-05T06:56:16.440Z,14.90
2018-09-05T06:59:20.346Z,13.97
2018-09-05T07:02:23.551Z,14.00
2018-09-05T07:05:26.703Z,15.77
2018-09-05T07:08:29.944Z,15.63
2018-09-05T07:11:33.232Z,15.40
2018-09-05T07:14:36.506Z,15.47
2018-09-05T07:17:39.816Z,17.07
2018-09-05T07:20:42.924Z,17.73
2018-09-05T07:23:46.238Z,17.83
2018-09-05T07:26:50.264Z,17.53
2018-09-05T07:29:53.572Z,16.73
2018-09-05T07:32:56.894Z,17.33
2018-09-05T07:36:00.381Z,17.13
2018-09-05T07:39:04.419Z,18.07
2018-09-05T07:42:07.666Z,16.87
2018-09-05T07:45:10.860Z,16.83
2018-09-05T07:48:14.132Z,17.50
2018-09-05T07:51:17.786Z,15.57
2018-09-05T07:54:22.083Z,15.73
2018-09-05T07:57:25.530Z,15.33
2018-09-05T08:00:28.755Z,15.90
2018-09-05T08:03:31.958Z,16.37
2018-09-05T08:06:35.101Z,16.50
2018-09-05T08:09:38.522Z,16.50
2018-09-05T08:12:41.745Z,16.20
2018-09-05T08:15:45.036Z,15.97
2018-09-05T08:18:48.268Z,15.93
2018-09-05T08:21:52.557Z,14.83
2018-09-05T08:24:55.741Z,16.53
2018-09-05T08:27:58.966Z,15.20
2018-09-05T08:31:02.344Z,15.53
2018-09-05T08:34:05.591Z,14.80
2018-09-05T08:37:09.180Z,14.77
2018-09-05T08:40:12.239Z,15.63
2018-09-05T08:43:15.439Z,15.40
2018-09-05T08:46:19.517Z,14.90
2018-09-05T08:49:22.656Z,15.27
2018-09-05T08:52:25.962Z,15.93
2018-09-05T08:55:29.492Z,15.90
2018-09-05T08:58:32.755Z,15.33
2018-09-05T09:01:36.934Z,14.37
2018-09-05T09:04:40.354Z,14.50
2018-09-05T09:07:43.613Z,15.43
2018-09-05T09:10:47.016Z,15.27
2018-09-05T09:13:51.502Z,13.50
2018-09-05T09:16:54.695Z,13.50
2018-09-05T09:19:58.966Z,13.03
2018-09-05T09:23:02.298Z,13.20
2018-09-05T09:26:05.649Z,14.43
2018-09-05T09:29:08.945Z,12.67
2018-09-05T09:32:12.244Z,13.90
2018-09-05T09:35:15.518Z,12.17
2018-09-05T09:38:19.551Z,12.50
2018-09-05T09:41:22.795Z,12.20
2018-09-05T09:44:25.969Z,13.13
2018-09-05T09:47:29.236Z,12.00
2018-09-05T09:50:32.527Z,12.00
2018-09-05T09:53:35.708Z,12.27
2018-09-05T09:56:38.944Z,12.57
2018-09-05T09:59:42.209Z,13.30
2018-09-05T10:02:51.050Z,12.93
2018-09-05T10:05:59.696Z,13.80
2018-09-05T10:09:08.344Z,13.03
2018-09-05T10:12:16.963Z,12.57
2018-09-05T10:15:25.600Z,11.93
2018-09-05T10:18:30.272Z,13.43
2018-09-05T10:21:33.543Z,12.23
2018-09-05T10:24:36.745Z,12.07
2018-09-05T10:27:40.044Z,11.70
2018-09-05T10:30:43.404Z,12.77
2018-09-05T10:33:46.687Z,12.40
2018-09-05T10:36:50.518Z,13.00
2018-09-05T10:39:53.835Z,13.03
2018-09-05T10:42:57.104Z,12.17
2018-09-05T10:46:01.480Z,12.80
2018-09-05T10:49:04.758Z,12.80
2018-09-05T10:52:09.084Z,13.00
2018-09-05T10:55:12.489Z,13.37
2018-09-05T10:58:15.706Z,12.77
2018-09-05T11:01:20.021Z,12.73
2018-09-05T11:04:23.338Z,11.00
2018-09-05T11:07:26.603Z,11.83
2018-09-05T11:10:29.943Z,12.77
2018-09-05T11:13:33.216Z,12.10
2018-09-05T11:16:36.928Z,12.50
2018-09-05T11:19:40.199Z,12.07
2018-09-05T11:22:46.790Z,13.53
2018-09-05T11:25:50.560Z,13.43
2018-09-05T11:28:53.965Z,13.73
2018-09-05T11:31:57.198Z,13.27
2018-09-05T11:35:00.487Z,12.10
2018-09-05T11:38:03.794Z,11.90
2018-09-05T11:41:07.227Z,12.17
2018-09-05T11:44:10.455Z,11.83
2018-09-05T11:47:13.664Z,11.47
2018-09-05T11:50:16.883Z,11.33
2018-09-05T11:53:20.626Z,11.20
2018-09-05T11:56:23.959Z,10.20
2018-09-05T11:59:27.235Z,9.93
2018-09-05T12:02:30.553Z,10.87
2018-09-05T12:05:33.747Z,10.50
2018-09-05T12:08:37.128Z,10.37
2018-09-05T12:11:40.761Z,10.53
2018-09-05T12:14:44.092Z,10.60
2018-09-05T12:17:47.482Z,10.40
2018-09-05T12:20:51.367Z,10.80
2018-09-05T12:23:54.685Z,10.00
2018-09-05T12:26:57.939Z,10.53
2018-09-05T12:30:01.276Z,10.77
2018-09-05T12:33:04.548Z,19.10
2018-09-05T12:36:07.826Z,11.00
2018-09-05T12:39:13.628Z,10.83
2018-09-05T12:42:16.927Z,11.30
2018-09-05T12:45:20.709Z,11.33
2018-09-05T12:48:24.447Z,10.87
2018-09-05T12:51:27.758Z,9.97
2018-09-05T12:54:30.971Z,10.47
2018-09-05T12:57:34.092Z,9.60
2018-09-05T13:00:37.304Z,9.73
2018-09-05T13:03:40.630Z,9.43
2018-09-05T13:06:43.754Z,10.10
2018-09-05T13:09:47.016Z,9.53
2018-09-05T13:12:51.428Z,10.20
2018-09-05T13:15:54.784Z,10.00
2018-09-05T13:18:57.994Z,10.13
2018-09-05T13:22:01.349Z,9.83
2018-09-05T13:25:04.615Z,9.87
2018-09-05T13:28:07.875Z,10.30
2018-09-05T13:31:11.199Z,10.53
2018-09-05T13:34:14.488Z,9.80
2018-09-05T13:37:17.682Z,10.03
2018-09-05T13:40:21.801Z,10.17
2018-09-05T13:43:25.112Z,10.10
2018-09-05T13:46:28.429Z,9.40
2018-09-05T13:49:31.707Z,9.63
2018-09-05T13:52:35.053Z,9.63
2018-09-05T13:55:38.348Z,9.63
2018-09-05T13:58:41.604Z,9.43
2018-09-05T14:01:45.047Z,10.37
2018-09-05T14:04:48.284Z,9.10
2018-09-05T14:07:52.246Z,9.80
2018-09-05T14:10:55.456Z,10.20
2018-09-05T14:13:58.686Z,10.73
2018-09-05T14:17:02.001Z,10.77
2018-09-05T14:20:05.728Z,10.20
2018-09-05T14:23:09.024Z,9.30
2018-09-05T14:26:12.299Z,9.83
2018-09-05T14:29:15.637Z,9.83
2018-09-05T14:32:18.896Z,9.90
2018-09-05T14:35:22.423Z,9.33
2018-09-05T14:38:25.695Z,8.83
2018-09-05T14:41:29.091Z,9.10
2018-09-05T14:44:32.572Z,9.93
2018-09-05T14:47:35.916Z,9.77
2018-09-05T14:50:39.252Z,9.43
2018-09-05T14:53:42.387Z,8.83
2018-09-05T14:56:47.082Z,9.30
2018-09-05T14:59:50.774Z,9.60
2018-09-05T15:02:54.040Z,8.97
2018-09-05T15:05:57.344Z,9.50
2018-09-05T15:09:00.595Z,9.30
2018-09-05T15:12:04.957Z,9.07
2018-09-05T15:15:08.261Z,9.77
2018-09-05T15:18:11.509Z,9.20
2018-09-05T15:21:14.934Z,9.40
2018-09-05T15:24:18.254Z,8.93
2018-09-05T15:27:22.243Z,9.13
2018-09-05T15:30:25.765Z,9.33
2018-09-05T15:33:29.043Z,9.33
2018-09-05T15:36:32.434Z,9.10
2018-09-05T15:39:35.768Z,8.77
2018-09-05T15:42:39.237Z,9.83
2018-09-05T15:45:42.547Z,9.40
2018-09-05T15:48:45.803Z,9.73
2018-09-05T15:51:53.559Z,9.07
2018-09-05T15:54:56.829Z,9.03
2018-09-05T15:58:00.171Z,9.73
2018-09-05T16:01:03.536Z,9.67
2018-09-05T16:04:07.041Z,10.03
2018-09-05T16:07:10.386Z,10.03
2018-09-05T16:10:13.629Z,9.57
2018-09-05T16:13:16.974Z,9.93
2018-09-05T16:16:20.715Z,9.90
2018-09-05T16:19:24.082Z,10.13
2018-09-05T16:22:27.362Z,10.00
2018-09-05T16:25:30.800Z,10.10
2018-09-05T16:28:34.265Z,9.70
2018-09-05T16:31:37.578Z,9.90
2018-09-05T16:34:40.818Z,10.50
2018-09-05T16:37:44.139Z,9.73
2018-09-05T16:40:47.391Z,10.13
2018-09-05T16:43:51.731Z,8.60
2018-09-05T16:46:54.947Z,9.73
2018-09-05T16:49:58.379Z,9.50
2018-09-05T16:53:01.631Z,9.67
2018-09-05T16:56:04.964Z,9.03
2018-09-05T16:59:08.232Z,9.07
2018-09-05T17:02:11.528Z,9.27
2018-09-05T17:05:14.719Z,9.03
2018-09-05T17:08:18.064Z,9.23
2018-09-05T17:11:22.009Z,8.87
2018-09-05T17:14:25.214Z,9.50
2018-09-05T17:17:28.648Z,9.03
2018-09-05T17:20:31.911Z,9.40
2018-09-05T17:23:35.300Z,9.97
2018-09-05T17:26:38.523Z,9.70
2018-09-05T17:29:41.818Z,9.10
2018-09-05T17:32:44.994Z,9.20
2018-09-05T17:35:48.332Z,9.13
2018-09-05T17:38:52.322Z,8.90
2018-09-05T17:41:55.613Z,9.60
2018-09-05T17:44:58.760Z,9.60
2018-09-05T17:48:02.354Z,9.37
2018-09-05T17:51:05.749Z,9.40
2018-09-05T17:54:09.027Z,9.47
2018-09-05T17:57:12.334Z,9.67
2018-09-05T18:00:15.583Z,9.67
2018-09-05T18:03:18.771Z,10.13
2018-09-05T18:06:22.999Z,10.43
2018-09-05T18:09:26.310Z,17.63
2018-09-05T18:12:29.686Z,12.10
2018-09-05T18:15:32.898Z,9.73
2018-09-05T18:18:36.191Z,10.13
2018-09-05T18:21:39.519Z,10.33
2018-09-05T18:24:42.855Z,9.70
2018-09-05T18:27:46.091Z,9.90
2018-09-05T18:30:50.151Z,9.37
2018-09-05T18:33:53.490Z,10.07
2018-09-05T18:36:56.689Z,9.90
2018-09-05T18:40:00.013Z,9.67
2018-09-05T18:43:03.230Z,10.03
2018-09-05T18:46:06.512Z,9.87
2018-09-05T18:49:09.706Z,10.67
2018-09-05T18:52:12.983Z,10.10
2018-09-05T18:55:16.216Z,10.67
2018-09-05T18:58:19.929Z,10.50
2018-09-05T19:01:23.199Z,10.40
2018-09-05T19:04:26.499Z,10.70
2018-09-05T19:07:29.672Z,10.17
2018-09-05T19:10:34.048Z,10.20
2018-09-05T19:13:37.306Z,10.57
2018-09-05T19:16:41.299Z,11.00
2018-09-05T19:19:44.613Z,10.80
2018-09-05T19:22:47.973Z,10.97
2018-09-05T19:25:51.207Z,11.37
2018-09-05T19:28:54.347Z,11.27
2018-09-05T19:31:57.655Z,10.20
2018-09-05T19:35:01.824Z,10.63
2018-09-05T19:38:05.027Z,10.20
2018-09-05T19:41:08.356Z,10.47
2018-09-05T19:44:12.679Z,10.47
2018-09-05T19:47:16.087Z,10.27
2018-09-05T19:50:19.363Z,10.97
2018-09-05T19:53:22.701Z,10.37
2018-09-05T19:56:26.029Z,10.47
2018-09-05T19:59:29.392Z,10.50
2018-09-05T20:02:32.523Z,10.00
2018-09-05T20:05:35.712Z,9.37
2018-09-05T20:08:39.065Z,9.50
2018-09-05T20:11:43.222Z,9.30
2018-09-05T20:14:46.422Z,9.73
2018-09-05T20:17:49.702Z,9.23
2018-09-05T20:20:52.972Z,9.07
2018-09-05T20:24:04.030Z,9.67
2018-09-05T20:27:08.544Z,9.17
2018-09-05T20:30:13.877Z,8.70
2018-09-05T20:33:17.178Z,8.80
2018-09-05T20:36:20.419Z,9.20
2018-09-05T20:39:23.772Z,10.33
2018-09-05T20:42:27.159Z,12.50
2018-09-05T20:45:30.396Z,8.80
2018-09-05T20:48:33.718Z,8.97
2018-09-05T20:51:36.964Z,8.67
2018-09-05T20:54:40.900Z,8.70
2018-09-05T20:57:44.203Z,9.03
2018-09-05T21:00:47.364Z,8.50
2018-09-05T21:03:50.623Z,9.03
2018-09-05T21:06:53.969Z,8.17
2018-09-05T21:09:57.266Z,8.53
2018-09-05T21:13:00.893Z,8.53
2018-09-05T21:16:04.203Z,8.63
2018-09-05T21:19:07.559Z,8.57
2018-09-05T21:22:11.511Z,8.57
2018-09-05T21:25:14.778Z,8.57
2018-09-05T21:28:18.146Z,9.10
2018-09-05T21:31:21.495Z,8.60
2018-09-05T21:34:24.809Z,8.07
2018-09-05T21:37:28.084Z,8.33
2018-09-05T21:40:31.458Z,8.73
2018-09-05T21:43:34.755Z,8.70
2018-09-05T21:46:38.033Z,8.60
2018-09-05T21:49:42.405Z,8.63
2018-09-05T21:52:45.702Z,8.00
2018-09-05T21:55:48.971Z,9.23
2018-09-05T21:58:52.236Z,8.57
2018-09-05T22:01:55.398Z,8.80
2018-09-05T22:04:58.708Z,8.83
2018-09-05T22:08:01.958Z,8.73
2018-09-05T22:11:11.511Z,8.90
2018-09-05T22:14:14.773Z,8.63
2018-09-05T22:17:17.997Z,8.57
2018-09-05T22:20:21.273Z,9.13
2018-09-05T22:23:24.564Z,8.80
2018-09-05T22:26:27.779Z,8.50
2018-09-05T22:29:34.493Z,9.40
2018-09-05T22:32:37.756Z,8.53
2018-09-05T22:35:41.440Z,9.10
2018-09-05T22:38:44.776Z,9.00
2018-09-05T22:41:48.051Z,8.83
2018-09-05T22:45:02.680Z,9.67
2018-09-05T22:48:34.235Z,9.40
2018-09-05T22:53:22.651Z,10.03
2018-09-05T22:58:48.832Z,9.20
2018-09-05T23:02:23.503Z,8.83
2018-09-05T23:08:48.534Z,9.23
2018-09-05T23:12:03.044Z,10.10
2018-09-05T23:15:17.709Z,9.80
2018-09-05T23:18:42.864Z,10.43
2018-09-05T23:21:46.228Z,10.57
2018-09-05T23:24:49.489Z,10.30
2018-09-05T23:27:52.719Z,9.73
2018-09-05T23:30:56.026Z,10.27
2018-09-05T23:33:59.290Z,10.27
2018-09-05T23:37:02.590Z,10.37
2018-09-05T23:40:05.893Z,11.23
2018-09-05T23:43:09.191Z,10.33
2018-09-05T23:46:13.693Z,10.70
2018-09-05T23:49:16.916Z,10.77
2018-09-05T23:52:20.186Z,11.23
2018-09-05T23:55:23.480Z,10.87
2018-09-05T23:58:30.497Z,11.17
